Time;durP1;ratioP1;P1;durP2;ratioP2;P2;SDS_P1;SDS_P2;PMS_P1;PMS_P2;Temp;Humidity;BMP_temperature;BMP_pressure;BME280_temperature;BME280_humidity;BME280_pressure;Samples;Min_cycle;Max_cycle;Signal;HPM_P1;HPM_P2
2022/02/01 00:03:48;;;;;;;22.88;7.18;;;;;;;1.44;48.80;92760.66;5063621;28;20017;-76
2022/02/01 00:06:24;;;;;;;27.13;8.98;;;;;;;1.46;48.65;92769.81;5062307;28;20279;-76
2022/02/01 00:09:15;;;;;;;24.25;8.35;;;;;;;1.50;48.81;92764.78;5063551;28;20025;-76
2022/02/01 00:38:27;;;;;;;14.10;5.77;;;;;;;1.59;47.92;92734.22;5063135;28;20088;-75
2022/02/01 00:40:57;;;;;;;20.15;6.20;;;;;;;1.63;48.95;92740.47;5062839;28;20211;-75
2022/02/01 00:43:23;;;;;;;20.73;7.25;;;;;;;1.67;49.17;92738.03;5062909;28;20067;-75
2022/02/01 00:45:49;;;;;;;22.73;7.40;;;;;;;1.65;48.80;92725.19;5062945;28;20029;-75
2022/02/01 00:48:15;;;;;;;21.60;7.75;;;;;;;1.66;48.72;92726.75;5062808;28;20299;-75
2022/02/01 00:50:40;;;;;;;20.63;6.55;;;;;;;1.70;48.83;92716.44;5062740;28;20029;-75
2022/02/01 00:53:06;;;;;;;18.75;6.38;;;;;;;1.71;49.27;92712.75;5062964;28;20021;-75
2022/02/01 00:55:33;;;;;;;13.82;5.55;;;;;;;1.71;49.37;92702.25;5062653;28;20307;-75
2022/02/01 00:57:59;;;;;;;18.40;5.88;;;;;;;1.75;49.25;92706.66;5062651;28;20048;-75
2022/02/01 01:00:24;;;;;;;17.17;4.68;;;;;;;1.74;49.45;92696.44;5061338;28;20021;-75
2022/02/01 01:02:50;;;;;;;12.13;3.72;;;;;;;1.74;48.85;92694.56;5061160;28;20016;-75
2022/02/01 01:05:15;;;;;;;15.98;4.53;;;;;;;1.79;48.55;92689.25;5062637;28;20219;-75
2022/02/01 01:07:41;;;;;;;19.08;4.60;;;;;;;1.82;48.06;92684.50;5062482;28;20016;-76
2022/02/01 01:10:07;;;;;;;13.02;4.25;;;;;;;1.80;47.60;92685.53;5062714;28;20112;-76
2022/02/01 01:12:38;;;;;;;17.38;4.60;;;;;;;1.86;47.51;92688.09;5062373;28;20037;-75
2022/02/01 01:15:17;;;;;;;12.07;3.55;;;;;;;1.90;47.28;92694.34;5062416;28;20025;-75
2022/02/01 01:18:23;;;;;;;13.52;4.03;;;;;;;1.93;47.44;92688.50;5062259;28;20250;-75
2022/02/01 01:55:23;;;;;;;19.35;4.70;;;;;;;2.13;46.34;92646.09;5062248;28;20100;-77
2022/02/01 01:57:49;;;;;;;14.95;4.47;;;;;;;2.10;47.00;92651.19;5062252;28;20096;-78
2022/02/01 02:00:42;;;;;;;21.02;5.90;;;;;;;2.07;48.13;92636.75;5062222;28;20071;-77
2022/02/01 02:03:06;;;;;;;16.67;5.70;;;;;;;2.05;48.45;92646.00;5062097;28;20049;-76
2022/02/01 02:05:31;;;;;;;23.98;6.20;;;;;;;2.02;48.17;92639.47;5061969;28;20219;-76
2022/02/01 02:07:57;;;;;;;19.38;5.50;;;;;;;2.06;47.82;92635.22;5060730;28;20021;-76
2022/02/01 02:10:29;;;;;;;23.70;5.97;;;;;;;2.07;48.12;92636.75;5062095;28;20198;-79
2022/02/01 02:13:02;;;;;;;27.38;6.63;;;;;;;2.03;48.18;92638.41;5061644;28;20060;-83
2022/02/01 02:15:37;;;;;;;26.98;6.30;;;;;;;2.03;48.31;92638.41;5061867;28;20058;-79
2022/02/01 02:18:03;;;;;;;21.45;6.63;;;;;;;2.02;48.44;92643.97;5061701;28;20326;-79
2022/02/01 02:20:48;;;;;;;21.80;6.00;;;;;;;2.02;48.48;92633.47;5061763;28;20028;-79
2022/02/01 02:23:13;;;;;;;20.35;7.78;;;;;;;2.02;49.28;92641.34;5061884;28;20049;-78
2022/02/01 02:25:40;;;;;;;15.43;6.03;;;;;;;1.96;49.74;92628.28;5062047;28;20036;-78
2022/02/01 02:28:07;;;;;;;21.10;7.10;;;;;;;1.93;49.75;92628.06;5064512;28;20067;-78
2022/02/01 02:30:33;;;;;;;22.88;6.93;;;;;;;1.96;50.27;92627.50;5065497;28;20092;-77
2022/02/01 02:33:04;;;;;;;22.95;6.50;;;;;;;1.91;50.13;92627.56;5065418;28;20266;-77
2022/02/01 02:35:35;;;;;;;16.67;5.57;;;;;;;1.89;48.79;92624.44;5065524;28;20040;-77
2022/02/01 02:38:08;;;;;;;26.27;6.88;;;;;;;1.82;48.31;92629.31;5065475;28;20036;-77
2022/02/01 02:45:58;;;;;;;20.85;6.80;;;;;;;1.66;49.68;92628.78;5065292;28;20138;-76
2022/02/01 02:48:24;;;;;;;15.23;5.70;;;;;;;1.65;49.10;92630.63;5064276;28;20021;-75
2022/02/01 02:50:49;;;;;;;16.63;5.15;;;;;;;1.53;48.62;92633.69;5064960;28;20021;-76
2022/02/01 02:53:15;;;;;;;25.23;7.38;;;;;;;1.43;49.38;92628.59;5065197;28;20096;-76
2022/02/01 02:55:41;;;;;;;21.52;7.68;;;;;;;1.25;50.24;92634.66;5065453;28;20025;-76
2022/02/01 02:58:06;;;;;;;22.00;8.30;;;;;;;1.12;50.52;92628.25;5065080;28;20032;-74
2022/02/01 03:00:31;;;;;;;22.65;7.13;;;;;;;0.99;50.91;92625.28;5064837;28;20059;-74
2022/02/01 03:02:57;;;;;;;18.77;7.00;;;;;;;0.92;51.19;92629.34;5064748;28;20092;-74
2022/02/01 03:05:22;;;;;;;15.93;7.55;;;;;;;0.97;51.38;92622.16;5064799;28;20100;-76
2022/02/01 03:07:48;;;;;;;22.73;7.38;;;;;;;1.00;50.64;92623.44;5065142;28;20021;-74
2022/02/01 03:10:13;;;;;;;20.20;6.57;;;;;;;1.02;50.56;92620.53;5064769;28;20028;-74
2022/02/01 03:15:36;;;;;;;20.73;5.95;;;;;;;1.12;51.33;92608.06;5064850;28;20043;-74
2022/02/01 03:20:45;;;;;;;11.30;6.07;;;;;;;1.18;51.64;92604.28;5064549;28;20043;-74
2022/02/01 03:23:11;;;;;;;20.23;7.22;;;;;;;1.18;50.85;92606.13;5064666;28;20048;-76
2022/02/01 03:25:36;;;;;;;15.40;6.35;;;;;;;1.09;50.53;92620.97;5063340;28;20024;-74
2022/02/01 03:28:02;;;;;;;20.10;6.65;;;;;;;1.01;50.90;92622.38;5064306;28;20047;-74
2022/02/01 03:30:27;;;;;;;24.05;7.13;;;;;;;0.89;50.93;92614.91;5064421;28;20066;-74
2022/02/01 03:32:53;;;;;;;16.98;7.78;;;;;;;0.59;51.93;92595.09;5064397;28;20334;-74
2022/02/01 03:35:18;;;;;;;18.23;7.30;;;;;;;0.56;51.79;92599.09;5064349;28;20128;-77
2022/02/01 03:37:44;;;;;;;28.63;8.73;;;;;;;0.48;52.57;92593.69;5063774;28;20257;-74
2022/02/01 03:40:15;;;;;;;24.35;8.07;;;;;;;0.46;53.14;92591.34;5063790;28;20021;-76
2022/02/01 03:42:40;;;;;;;17.48;7.28;;;;;;;0.54;52.80;92593.34;5064467;28;20067;-76
2022/02/01 03:45:06;;;;;;;22.23;7.47;;;;;;;0.67;52.49;92585.84;5064143;28;20072;-76
2022/02/01 03:47:32;;;;;;;19.55;7.97;;;;;;;0.75;53.00;92587.84;5064183;28;20044;-76
2022/02/01 03:49:59;;;;;;;25.48;8.25;;;;;;;0.84;53.46;92586.16;5064150;28;20021;-75
2022/02/01 03:52:25;;;;;;;19.67;7.90;;;;;;;0.92;53.67;92571.63;5064125;28;20045;-76
2022/02/01 03:54:51;;;;;;;25.17;9.25;;;;;;;1.02;53.43;92571.47;5064133;28;20224;-76
2022/02/01 03:57:17;;;;;;;24.45;9.27;;;;;;;1.10;52.72;92576.06;5064005;28;20056;-76
2022/02/01 03:59:46;;;;;;;22.77;8.65;;;;;;;1.14;52.52;92582.31;5064021;28;20028;-76
2022/02/01 04:02:14;;;;;;;28.10;10.20;;;;;;;1.14;52.00;92568.38;5064315;28;20024;-76
2022/02/01 04:04:39;;;;;;;30.13;9.70;;;;;;;1.11;51.56;92566.34;5064018;28;20020;-75
2022/02/01 04:07:07;;;;;;;34.80;8.45;;;;;;;1.08;51.25;92557.22;5063950;28;20107;-75
2022/02/01 04:09:33;;;;;;;24.92;8.90;;;;;;;1.03;51.76;92556.50;5063580;28;20017;-75
2022/02/01 04:12:00;;;;;;;22.45;8.25;;;;;;;0.97;51.62;92559.19;5063679;28;20314;-75
2022/02/01 04:14:30;;;;;;;29.63;10.20;;;;;;;0.91;52.41;92572.66;5063578;28;20028;-74
2022/02/01 04:16:58;;;;;;;29.20;12.23;;;;;;;0.85;52.94;92561.47;5062411;28;20063;-75
2022/02/01 04:19:25;;;;;;;26.95;11.45;;;;;;;0.84;52.90;92559.91;5063302;28;20062;-75
2022/02/01 04:24:27;;;;;;;36.10;14.05;;;;;;;0.83;53.38;92560.97;5063432;28;20012;-75
2022/02/01 04:26:53;;;;;;;43.65;15.82;;;;;;;0.91;53.69;92570.81;5063369;28;20017;-75
2022/02/01 04:29:19;;;;;;;44.80;14.30;;;;;;;0.89;53.76;92567.69;5063205;28;20028;-74
2022/02/01 04:31:44;;;;;;;41.38;14.55;;;;;;;0.82;53.88;92556.78;5063308;28;20108;-74
2022/02/01 04:34:10;;;;;;;31.80;11.90;;;;;;;0.54;54.71;92556.63;5061986;28;20029;-74
2022/02/01 04:36:35;;;;;;;35.88;12.68;;;;;;;0.48;54.88;92557.75;5063048;28;20073;-75
2022/02/01 04:39:02;;;;;;;31.33;10.80;;;;;;;0.47;54.58;92558.03;5062999;28;20099;-75
2022/02/01 04:41:28;;;;;;;30.10;11.20;;;;;;;0.49;54.33;92564.56;5062763;28;20263;-74
2022/02/01 04:43:55;;;;;;;34.10;12.10;;;;;;;0.53;54.28;92565.56;5062801;28;20012;-76
2022/02/01 04:46:21;;;;;;;34.58;12.30;;;;;;;0.58;54.64;92565.50;5062966;28;20222;-76
2022/02/01 04:48:48;;;;;;;32.95;11.82;;;;;;;0.68;54.53;92571.69;5063127;28;20333;-76
2022/02/01 04:51:15;;;;;;;34.38;11.70;;;;;;;0.73;54.70;92575.03;5062233;28;20017;-76
2022/02/01 04:53:41;;;;;;;36.33;11.98;;;;;;;0.80;55.13;92564.16;5063005;28;20086;-76
2022/02/01 04:56:07;;;;;;;33.45;10.43;;;;;;;0.89;55.15;92574.78;5062761;28;20611;-77
2022/02/01 04:58:32;;;;;;;33.53;11.77;;;;;;;0.91;54.59;92578.69;5062800;28;20021;-77
2022/02/01 05:00:58;;;;;;;28.52;11.68;;;;;;;0.96;54.88;92583.88;5062587;28;20040;-77
2022/02/01 05:03:23;;;;;;;29.00;11.48;;;;;;;1.03;54.82;92588.00;5062788;28;20013;-77
2022/02/01 05:05:50;;;;;;;35.58;12.50;;;;;;;1.10;55.02;92588.41;5062662;28;20096;-77
2022/02/01 05:08:15;;;;;;;33.67;11.70;;;;;;;1.11;54.75;92589.97;5062756;28;20219;-78
2022/02/01 05:10:41;;;;;;;32.00;11.50;;;;;;;1.13;54.87;92585.97;5062562;28;20029;-78
2022/02/01 05:15:43;;;;;;;38.03;13.55;;;;;;;1.23;54.25;92577.19;5062755;28;20025;-78
2022/02/01 05:18:24;;;;;;;35.30;13.65;;;;;;;1.26;54.57;92581.06;5062546;28;20032;-78
2022/02/01 05:23:16;;;;;;;38.10;12.18;;;;;;;1.32;54.17;92587.81;5062417;28;20079;-77
2022/02/01 05:25:42;;;;;;;37.83;13.63;;;;;;;1.31;53.93;92587.03;5062707;28;20020;-77
2022/02/01 05:28:08;;;;;;;55.65;31.35;;;;;;;1.34;54.02;92594.34;5062425;28;20032;-76
2022/02/01 05:30:34;;;;;;;49.58;24.52;;;;;;;1.34;53.72;92596.19;5062469;28;20130;-76
2022/02/01 05:33:00;;;;;;;49.72;20.85;;;;;;;1.36;53.60;92607.16;5062358;28;20029;-76
2022/02/01 05:35:26;;;;;;;39.83;16.33;;;;;;;1.36;53.65;92612.41;5062145;28;20025;-77
2022/02/01 05:37:51;;;;;;;37.55;17.30;;;;;;;1.34;53.24;92612.72;5062147;28;20028;-77
2022/02/01 05:40:19;;;;;;;42.45;17.50;;;;;;;1.34;53.29;92610.09;5061098;28;20029;-76
2022/02/01 05:42:56;;;;;;;54.60;17.83;;;;;;;1.29;53.22;92606.78;5062200;28;20055;-77
2022/02/01 05:45:21;;;;;;;36.88;15.77;;;;;;;1.15;53.62;92609.31;5062221;28;20095;-76
2022/02/01 05:47:47;;;;;;;46.28;18.70;;;;;;;1.14;53.86;92611.19;5062251;28;20024;-77
2022/02/01 05:50:13;;;;;;;37.50;14.77;;;;;;;1.16;54.33;92616.13;5062513;28;20327;-77
2022/02/01 05:52:39;;;;;;;39.83;14.77;;;;;;;1.09;54.11;92618.34;5061883;28;20016;-77
2022/02/01 05:55:06;;;;;;;36.72;13.60;;;;;;;1.12;53.90;92625.63;5062029;28;20099;-76
2022/02/01 05:57:34;;;;;;;30.95;14.35;;;;;;;1.08;53.76;92627.25;5062218;28;20028;-77
2022/02/01 06:00:03;;;;;;;42.15;15.63;;;;;;;0.99;53.68;92640.25;5062274;28;20275;-77
2022/02/01 06:02:28;;;;;;;33.22;13.38;;;;;;;0.90;53.77;92634.84;5062233;28;20200;-77
2022/02/01 06:04:54;;;;;;;43.90;14.32;;;;;;;0.84;53.82;92641.22;5066176;28;20058;-77
2022/02/01 06:07:19;;;;;;;44.90;17.52;;;;;;;0.72;54.50;92638.25;5066035;28;20036;-77
2022/02/01 06:09:45;;;;;;;41.35;17.45;;;;;;;0.62;54.76;92654.09;5066126;28;20319;-78
2022/02/01 06:12:10;;;;;;;34.53;14.45;;;;;;;0.54;54.87;92658.88;5065794;28;20120;-77
2022/02/01 06:14:36;;;;;;;35.60;14.45;;;;;;;0.53;54.99;92667.03;5065471;28;20315;-77
2022/02/01 06:17:01;;;;;;;35.08;13.40;;;;;;;0.64;55.68;92673.72;5065912;28;20131;-76
2022/02/01 06:19:30;;;;;;;33.65;14.60;;;;;;;0.71;55.79;92682.06;5065761;28;20024;-77
2022/02/01 06:21:55;;;;;;;30.98;13.55;;;;;;;0.78;54.93;92698.22;5065660;28;20179;-76
2022/02/01 06:24:21;;;;;;;45.35;17.17;;;;;;;0.89;54.26;92695.47;5065402;28;20038;-77
2022/02/01 06:26:47;;;;;;;34.67;15.10;;;;;;;0.87;54.70;92714.09;5065793;28;20108;-77
2022/02/01 06:29:13;;;;;;;33.00;15.00;;;;;;;0.84;54.19;92719.16;5065449;28;20025;-78
2022/02/01 06:31:38;;;;;;;20.63;9.65;;;;;;;0.85;52.04;92713.59;5065286;28;20033;-78
2022/02/01 06:34:04;;;;;;;22.83;10.25;;;;;;;0.91;52.65;92712.50;5065228;28;20020;-78
2022/02/01 06:36:29;;;;;;;21.70;8.80;;;;;;;1.00;51.29;92721.31;5065044;28;20258;-77
2022/02/01 06:38:55;;;;;;;24.90;8.80;;;;;;;1.05;51.40;92730.19;5065381;28;20306;-77
2022/02/01 06:41:20;;;;;;;22.73;9.52;;;;;;;1.19;51.25;92717.94;5064123;28;20322;-78
2022/02/01 06:43:47;;;;;;;27.08;8.77;;;;;;;1.30;51.31;92724.59;5065246;28;20032;-78
2022/02/01 06:46:13;;;;;;;22.75;9.63;;;;;;;1.41;51.25;92730.50;5064910;28;20021;-77
2022/02/01 06:48:39;;;;;;;27.90;8.63;;;;;;;1.52;50.93;92725.91;5065379;28;20436;-78
2022/02/01 06:51:05;;;;;;;24.30;8.65;;;;;;;1.62;50.90;92731.00;5064181;28;20044;-78
2022/02/01 06:53:33;;;;;;;29.70;10.75;;;;;;;1.74;49.87;92726.09;5064950;28;20020;-79
2022/02/01 06:58:25;;;;;;;43.50;14.48;;;;;;;1.97;49.85;92723.66;5065110;28;20315;-77
2022/02/01 07:00:50;;;;;;;50.28;18.33;;;;;;;1.99;49.23;92738.09;5063764;28;20032;-78
2022/02/01 07:03:15;;;;;;;47.83;18.83;;;;;;;2.12;48.56;92741.06;5065683;28;20020;-83
2022/02/01 07:05:44;;;;;;;55.45;20.50;;;;;;;2.19;47.94;92738.81;5064932;28;20096;-80
2022/02/01 07:08:09;;;;;;;44.88;18.05;;;;;;;2.27;47.55;92734.75;5065024;28;20037;-81
2022/02/01 07:10:35;;;;;;;36.25;15.23;;;;;;;2.36;46.85;92740.91;5064792;28;20024;-80
2022/02/01 07:13:00;;;;;;;42.08;16.30;;;;;;;2.44;46.76;92747.34;5064145;28;20227;-82
2022/02/01 07:15:29;;;;;;;37.33;15.43;;;;;;;2.59;46.10;92747.09;5065660;28;20029;-83
2022/02/01 07:17:55;;;;;;;45.45;16.58;;;;;;;2.69;45.54;92751.41;5066740;28;20108;-88
2022/02/01 07:20:32;;;;;;;39.72;14.73;;;;;;;2.80;44.56;92752.78;5068255;28;20047;-83
2022/02/01 07:23:26;;;;;;;40.33;17.63;;;;;;;2.95;43.81;92759.59;5062338;28;20036;-85
2022/02/01 07:26:08;;;;;;;44.03;18.10;;;;;;;3.05;43.55;92763.88;5066861;28;20327;-84
2022/02/01 07:28:34;;;;;;;22.07;9.23;;;;;;;3.15;44.09;92766.31;5065224;28;20024;-83
2022/02/01 07:31:01;;;;;;;52.40;15.52;;;;;;;3.19;44.99;92764.66;5064977;28;20224;-84
2022/02/01 07:33:28;;;;;;;56.58;17.70;;;;;;;3.16;46.66;92767.91;5065210;28;20020;-83
2022/02/01 07:35:55;;;;;;;37.97;12.93;;;;;;;3.09;46.54;92768.28;5065146;28;20287;-84
2022/02/01 07:38:30;;;;;;;41.72;11.95;;;;;;;3.04;45.43;92773.66;5067482;28;20016;-82
2022/02/01 07:41:05;;;;;;;35.40;9.38;;;;;;;3.01;45.07;92769.75;5063826;28;20037;-83
2022/02/01 07:43:31;;;;;;;42.95;12.27;;;;;;;3.12;45.47;92772.19;5064620;28;20021;-81
2022/02/01 07:46:00;;;;;;;43.75;14.82;;;;;;;3.16;45.72;92781.06;5064486;28;20039;-79
2022/02/01 07:48:27;;;;;;;44.47;15.48;;;;;;;3.20;46.70;92782.81;5064478;28;20037;-78
2022/02/01 07:50:53;;;;;;;52.95;18.55;;;;;;;3.30;47.81;92773.16;5064263;28;20051;-80
2022/02/01 07:53:18;;;;;;;48.20;17.75;;;;;;;3.41;47.65;92788.44;5064441;28;20319;-78
2022/02/01 07:55:44;;;;;;;46.00;18.95;;;;;;;3.49;47.45;92788.84;5064083;28;20334;-78
2022/02/01 07:58:09;;;;;;;52.17;19.52;;;;;;;3.51;47.57;92791.97;5063979;28;20016;-77
2022/02/01 08:00:35;;;;;;;52.90;21.35;;;;;;;3.54;47.64;92792.16;5062917;28;20021;-78
2022/02/01 08:03:00;;;;;;;54.80;19.75;;;;;;;3.58;47.82;92792.34;5063830;28;20032;-80
2022/02/01 08:05:29;;;;;;;54.08;21.50;;;;;;;3.66;47.25;92794.28;5063791;28;20097;-80
2022/02/01 08:07:55;;;;;;;53.15;22.27;;;;;;;3.71;47.23;92788.91;5063582;28;20029;-78
2022/02/01 08:10:21;;;;;;;60.05;21.17;;;;;;;3.78;46.56;92793.78;5063758;28;20021;-80
2022/02/01 08:20:58;;;;;;;29.77;12.43;;;;;;;4.00;45.72;92774.59;5063538;28;20044;-79
2022/02/01 08:23:23;;;;;;;46.03;15.15;;;;;;;4.07;45.32;92782.88;5063365;28;20063;-81
2022/02/01 08:25:52;;;;;;;65.20;23.48;;;;;;;4.09;45.91;92780.72;5063277;28;20087;-78
2022/02/01 08:28:19;;;;;;;90.43;30.00;;;;;;;4.11;46.99;92785.66;5063302;28;20056;-83
2022/02/01 08:30:45;;;;;;;106.05;26.63;;;;;;;4.02;47.09;92778.47;5063079;28;20029;-80
2022/02/01 08:33:10;;;;;;;74.25;27.23;;;;;;;3.95;47.52;92779.97;5062941;28;20082;-79
2022/02/01 08:35:36;;;;;;;60.72;25.20;;;;;;;4.04;47.30;92777.41;5062876;28;20029;-80
2022/02/01 08:38:02;;;;;;;87.82;25.63;;;;;;;4.09;46.93;92780.72;5062449;28;20048;-77
2022/02/01 08:40:27;;;;;;;80.68;25.17;;;;;;;4.11;46.73;92772.47;5062835;28;20021;-77
2022/02/01 08:42:53;;;;;;;65.43;22.35;;;;;;;4.18;46.70;92778.91;5062906;28;20013;-81
2022/02/01 08:45:23;;;;;;;53.63;21.75;;;;;;;4.25;46.40;92781.13;5062939;28;20295;-82
2022/02/01 08:47:52;;;;;;;55.60;19.33;;;;;;;4.36;45.74;92782.47;5062652;28;20032;-81
2022/02/01 08:50:22;;;;;;;54.90;19.80;;;;;;;4.40;45.65;92774.72;5061638;28;20029;-84
2022/02/01 08:52:49;;;;;;;60.75;21.50;;;;;;;4.45;45.68;92777.22;5063050;28;20131;-84
2022/02/01 08:55:33;;;;;;;61.03;19.40;;;;;;;4.43;45.24;92779.38;5063245;28;20297;-84
2022/02/01 08:58:03;;;;;;;40.63;18.40;;;;;;;4.48;45.28;92771.38;5062992;28;20025;-83
2022/02/01 09:00:29;;;;;;;51.15;21.17;;;;;;;4.54;45.30;92786.00;5062966;28;20017;-84
2022/02/01 09:02:58;;;;;;;59.50;19.25;;;;;;;4.46;44.63;92772.72;5063120;28;20040;-84
2022/02/01 09:05:25;;;;;;;63.50;18.08;;;;;;;4.51;44.26;92775.25;5063114;28;20021;-86
2022/02/01 09:07:51;;;;;;;46.85;17.45;;;;;;;4.59;44.57;92783.22;5063252;28;20025;-87
2022/02/01 09:10:16;;;;;;;54.53;17.60;;;;;;;4.65;44.57;92785.75;5063233;28;20039;-86
2022/02/01 09:12:42;;;;;;;55.95;19.10;;;;;;;4.71;44.41;92776.63;5062631;28;20044;-83
2022/02/01 09:15:08;;;;;;;39.13;16.95;;;;;;;4.81;43.78;92779.00;5062635;28;20029;-80
2022/02/01 09:17:34;;;;;;;56.13;19.48;;;;;;;4.82;42.94;92772.63;5060812;28;20365;-77
2022/02/01 09:20:00;;;;;;;54.33;18.60;;;;;;;4.82;43.22;92776.06;5062674;28;20025;-80
2022/02/01 09:22:26;;;;;;;48.38;18.83;;;;;;;4.81;43.98;92771.84;5061067;28;20100;-78
2022/02/01 09:24:52;;;;;;;51.13;17.83;;;;;;;4.83;43.62;92774.19;5062554;28;20180;-78
2022/02/01 09:27:18;;;;;;;41.20;18.48;;;;;;;4.91;43.52;92780.59;5062429;28;20258;-79
2022/02/01 09:29:44;;;;;;;42.65;18.73;;;;;;;4.95;43.48;92784.19;5061993;28;20020;-78
2022/02/01 09:32:09;;;;;;;67.97;21.02;;;;;;;4.98;43.64;92776.44;5062561;28;20032;-79
2022/02/01 09:34:35;;;;;;;59.30;20.52;;;;;;;5.02;43.76;92781.88;5060851;28;20093;-79
2022/02/01 09:37:03;;;;;;;47.47;19.48;;;;;;;5.05;44.28;92776.00;5061429;28;20035;-79
2022/02/01 09:39:30;;;;;;;55.75;22.13;;;;;;;5.12;44.17;92776.34;5062200;28;20051;-78
2022/02/01 09:41:56;;;;;;;77.32;23.25;;;;;;;5.19;44.37;92770.59;5060842;28;20104;-78
2022/02/01 09:44:22;;;;;;;67.20;24.20;;;;;;;5.20;44.62;92770.31;5060790;28;20056;-76
2022/02/01 09:46:50;;;;;;;67.95;26.02;;;;;;;5.19;44.56;92775.88;5062310;28;20036;-77
2022/02/01 09:49:19;;;;;;;68.20;24.25;;;;;;;5.27;44.43;92772.53;5062849;28;20311;-76
2022/02/01 09:51:48;;;;;;;60.70;21.27;;;;;;;5.33;44.52;92776.59;5065883;28;20025;-76
2022/02/01 09:54:14;;;;;;;54.30;19.77;;;;;;;5.37;43.76;92779.38;5061629;28;20059;-78
2022/02/01 09:56:39;;;;;;;58.45;20.08;;;;;;;5.36;43.63;92775.19;5063070;28;20223;-77
2022/02/01 09:59:21;;;;;;;60.47;21.27;;;;;;;5.35;43.83;92770.97;5063828;28;20307;-77
2022/02/01 10:01:54;;;;;;;57.43;20.73;;;;;;;5.37;43.94;92772.25;5062726;28;20031;-76
2022/02/01 10:04:25;;;;;;;60.90;21.38;;;;;;;5.46;43.97;92769.63;5062352;28;20524;-75
2022/02/01 10:06:50;;;;;;;66.03;19.10;;;;;;;5.50;43.41;92767.91;5062868;28;20021;-77
2022/02/01 10:09:16;;;;;;;65.10;19.10;;;;;;;5.54;42.81;92770.72;5062671;28;20025;-75
2022/02/01 10:11:46;;;;;;;51.53;17.25;;;;;;;5.58;42.75;92769.03;5062838;28;20048;-76
2022/02/01 10:14:29;;;;;;;53.17;17.95;;;;;;;5.61;42.82;92771.03;5062657;28;20037;-76
2022/02/01 10:16:58;;;;;;;62.17;21.45;;;;;;;5.67;42.59;92761.88;5061505;28;20026;-75
2022/02/01 10:19:23;;;;;;;51.10;20.98;;;;;;;5.70;42.37;92765.75;5061880;28;20036;-76
2022/02/01 10:21:55;;;;;;;56.80;21.60;;;;;;;5.69;42.62;92770.28;5062014;28;20028;-76
2022/02/01 10:24:28;;;;;;;47.97;21.23;;;;;;;5.71;42.77;92762.03;5062021;28;20028;-75
2022/02/01 10:27:03;;;;;;;63.50;21.65;;;;;;;5.74;42.85;92758.78;5061852;28;20029;-76
2022/02/01 10:29:29;;;;;;;63.38;20.00;;;;;;;5.79;42.98;92767.34;5062135;28;20033;-83
2022/02/01 10:31:58;;;;;;;50.55;19.70;;;;;;;5.87;42.67;92763.16;5061890;28;20033;-80
2022/02/01 10:37:03;;;;;;;47.58;19.45;;;;;;;5.94;42.56;92760.03;5061915;28;20017;-75
2022/02/01 10:39:30;;;;;;;63.42;22.00;;;;;;;6.00;42.64;92759.63;5061898;28;20044;-75
2022/02/01 10:42:16;;;;;;;57.88;20.77;;;;;;;6.03;42.59;92760.88;5061612;28;20025;-75
2022/02/01 10:44:55;;;;;;;56.45;20.73;;;;;;;6.03;42.39;92766.16;5061349;28;20027;-75
2022/02/01 10:47:32;;;;;;;52.53;21.85;;;;;;;6.07;42.54;92763.66;5061473;28;20025;-74
2022/02/01 10:50:08;;;;;;;51.70;19.08;;;;;;;6.08;41.95;92771.28;5063223;28;20029;-75
2022/02/01 10:52:55;;;;;;;18.10;7.82;;;;;;;6.20;38.89;92768.78;5064993;28;20037;-75
2022/02/01 10:55:21;;;;;;;10.02;4.75;;;;;;;6.13;38.15;92763.19;5065059;28;20358;-75
2022/02/01 10:57:48;;;;;;;16.70;4.53;;;;;;;6.11;38.60;92770.66;5065069;28;20028;-75
2022/02/01 11:00:17;;;;;;;8.23;3.75;;;;;;;6.11;39.13;92775.97;5065092;28;20028;-74
2022/02/01 11:02:45;;;;;;;9.55;3.38;;;;;;;6.05;39.76;92782.50;5064984;28;20099;-75
2022/02/01 11:05:17;;;;;;;9.27;2.28;;;;;;;5.87;40.52;92788.81;5064948;28;20024;-74
2022/02/01 11:07:42;;;;;;;6.53;3.00;;;;;;;5.72;41.12;92790.03;5064955;28;20064;-75
2022/02/01 11:10:09;;;;;;;6.55;2.45;;;;;;;5.68;41.27;92784.59;5064693;28;20032;-74
2022/02/01 11:12:37;;;;;;;17.67;3.70;;;;;;;5.57;41.34;92781.44;5064594;28;20052;-76
2022/02/01 11:15:18;;;;;;;10.63;3.58;;;;;;;5.61;41.54;92777.09;5064565;28;20017;-74
2022/02/01 11:17:50;;;;;;;8.20;3.10;;;;;;;5.64;41.77;92788.94;5064583;28;20330;-74
2022/02/01 11:20:29;;;;;;;11.18;2.63;;;;;;;5.56;41.54;92776.50;5064536;28;20070;-75
2022/02/01 11:23:06;;;;;;;8.10;3.00;;;;;;;5.34;42.16;92785.28;5064583;28;20087;-75
2022/02/01 11:25:45;;;;;;;8.48;2.60;;;;;;;5.34;42.04;92780.78;5064395;28;20033;-75
2022/02/01 11:28:32;;;;;;;8.93;2.88;;;;;;;5.16;42.15;92765.94;5064530;28;20027;-75
2022/02/01 11:30:58;;;;;;;11.70;3.35;;;;;;;5.11;43.08;92763.44;5064438;28;20028;-74
2022/02/01 11:33:35;;;;;;;9.27;2.70;;;;;;;5.10;43.14;92759.25;5064274;28;20045;-74
2022/02/01 11:36:06;;;;;;;16.38;6.57;;;;;;;5.18;42.81;92771.69;5063093;28;20510;-76
2022/02/01 11:38:32;;;;;;;16.77;6.03;;;;;;;5.16;43.97;92779.16;5064391;28;20016;-77
2022/02/01 11:41:04;;;;;;;18.58;6.35;;;;;;;5.13;43.72;92790.31;5064011;28;20076;-75
2022/02/01 11:43:29;;;;;;;;;;;;;;;5.15;42.95;92781.03;5064640;28;20020;-76
2022/02/01 11:45:58;;;;;;;11.52;5.20;;;;;;;5.10;43.39;92767.94;5064162;28;19907;-75
2022/02/01 11:48:27;;;;;;;15.13;5.18;;;;;;;5.13;43.53;92759.41;5063964;28;20230;-76
2022/02/01 11:51:09;;;;;;;21.33;9.00;;;;;;;5.24;43.65;92765.19;5064088;28;20047;-75
2022/02/01 11:53:42;;;;;;;;;;;;;;;5.22;43.65;92762.06;5062959;28;20110;-76
2022/02/01 11:56:10;;;;;;;10.70;5.07;;;;;;;5.21;43.80;92760.50;5063948;28;19932;-75
2022/02/01 11:58:46;;;;;;;12.73;5.25;;;;;;;5.13;43.83;92775.25;5063449;28;20025;-78
2022/02/01 12:01:35;;;;;;;12.98;6.53;;;;;;;5.11;43.91;92780.06;5063192;28;20025;-77
2022/02/01 12:04:05;;;;;;;14.88;5.78;;;;;;;4.97;44.25;92798.66;5062490;28;20017;-77
2022/02/01 12:06:45;;;;;;;23.75;9.20;;;;;;;4.91;44.89;92794.59;5064058;28;20041;-81
2022/02/01 12:09:19;;;;;;;25.02;10.52;;;;;;;4.88;45.31;92794.41;5063574;28;20311;-81
2022/02/01 12:11:45;;;;;;;27.17;9.27;;;;;;;4.86;45.66;92789.41;5063364;28;20100;-82
2022/02/01 12:14:11;;;;;;;30.90;11.63;;;;;;;4.83;46.27;92788.16;5063420;28;20025;-80
2022/02/01 12:16:36;;;;;;;25.98;10.15;;;;;;;4.85;46.60;92787.88;5062294;28;20040;-79
2022/02/01 12:19:08;;;;;;;21.05;7.68;;;;;;;4.90;46.91;92787.72;5063179;28;20215;-78
2022/02/01 12:21:58;;;;;;;12.55;5.55;;;;;;;4.90;47.04;92790.38;5062220;28;20063;-82
2022/02/01 12:24:27;;;;;;;23.25;7.65;;;;;;;4.94;45.79;92804.53;5062319;28;20064;-80
2022/02/01 12:26:53;;;;;;;21.83;8.15;;;;;;;4.97;45.32;92803.94;5063268;28;20033;-79
2022/02/01 12:29:18;;;;;;;16.65;7.28;;;;;;;4.94;44.75;92803.75;5063268;28;20036;-78
2022/02/01 12:31:44;;;;;;;16.63;7.20;;;;;;;4.88;45.12;92821.56;5063277;28;20021;-77
2022/02/01 12:34:13;;;;;;;17.88;8.75;;;;;;;4.84;45.93;92828.53;5063038;28;20063;-83
2022/02/01 12:36:41;;;;;;;15.65;5.85;;;;;;;4.80;46.34;92831.03;5063204;28;20028;-82
2022/02/01 12:39:24;;;;;;;12.35;4.75;;;;;;;4.67;46.97;92831.88;5063353;28;20017;-83
2022/02/01 12:42:04;;;;;;;31.20;9.38;;;;;;;4.44;47.60;92836.38;5062301;28;20377;-82
2022/02/01 12:47:04;;;;;;;14.63;4.03;;;;;;;4.24;46.00;92839.47;5068992;28;20023;-87
2022/02/01 12:49:35;;;;;;;9.90;3.80;;;;;;;4.23;46.42;92838.66;5064645;28;20035;-85
2022/02/01 12:52:01;;;;;;;13.32;3.28;;;;;;;4.13;46.17;92849.44;5063061;28;20021;-81
2022/02/01 12:54:29;;;;;;;11.90;3.70;;;;;;;4.05;46.42;92853.59;5063054;28;20025;-84
2022/02/01 12:57:06;;;;;;;9.05;3.10;;;;;;;4.03;46.96;92858.38;5063099;28;20009;-81
2022/02/01 12:59:45;;;;;;;12.02;3.42;;;;;;;3.92;47.66;92852.50;5062688;28;20096;-79
2022/02/01 13:02:14;;;;;;;18.13;3.33;;;;;;;3.77;47.70;92860.75;5062796;28;20044;-79
2022/02/01 13:04:40;;;;;;;12.52;3.72;;;;;;;3.76;47.73;92867.09;5062586;28;20033;-80
2022/02/01 13:07:17;;;;;;;13.15;3.85;;;;;;;3.81;48.52;92869.63;5062984;28;20035;-80
2022/02/01 13:15:31;;;;;;;12.30;3.92;;;;;;;3.86;48.60;92882.69;5062416;28;20035;-79
2022/02/01 13:21:11;;;;;;;16.27;4.30;;;;;;;3.82;50.05;92892.28;5062589;28;20086;-79
2022/02/01 13:23:38;;;;;;;14.35;4.53;;;;;;;3.81;50.17;92888.09;5062229;28;20051;-79